tititudorancea.com
Station Historical Data
Daily Summary for March 21, 2018 Units:  Metric    English   Both
« Previous Day
Next Day »
Daily Weekly Monthly Yearly Custom
  High: Low: Average:
Temperature: -17.8 °C 9.7 °C 16.4 °C
Dew Point: -17.8 °C 5.6 °C 8.3 °C
Humidity: Humidity % 37 % 61 %
Wind Speed: 0 km/h 1.8 km/h 11.4 km/h
Wind Gust: 0 km/h - -
Wind:- - SSE
Pressure: 0 hPa 1020.9 hPa -
Precipitation: 0 mm    
Historical Graphs
 
 
Ararat weather Find more about Weather in Ararat, AU


 



 


Tabular Data for March 21, 2018
Time Temperature Dew Point Pressure Wind Wind Speed Wind Gust Humidity Rainfall Rate (Hourly)
-17.8 °C -17.8 °C 0 hPa Calm     Humidity % 0 mm
00:02 10.8 °C 6.4 °C 1027 hPa SSE 16.7 km/h 24.1 km/h 74 % 0 mm
00:14 10.9 °C 6.3 °C 1027 hPa SSE 16.3 km/h 22.2 km/h 73 % 0 mm
00:19 10.9 °C 6.3 °C 1027.3 hPa SSE 16.7 km/h 22.5 km/h 73 % 0 mm
00:24 11 °C 6.3 °C 1027.3 hPa South 20.6 km/h 31.5 km/h 73 % 0 mm
00:29 11 °C 6.3 °C 1027.3 hPa South 16.9 km/h 31.5 km/h 73 % 0 mm
00:34 11.1 °C 6.4 °C 1027.3 hPa South 17.7 km/h 33.3 km/h 73 % 0 mm
00:39 11 °C 6.3 °C 1027 hPa SSE 19.8 km/h 33.3 km/h 73 % 0 mm
00:44 11 °C 6.3 °C 1027 hPa South 15.6 km/h 24.1 km/h 73 % 0 mm
00:49 11 °C 6.3 °C 1027 hPa South 9.2 km/h 14.8 km/h 73 % 0 mm
00:54 10.9 °C 6.3 °C 1027 hPa SSE 13.7 km/h 25.9 km/h 73 % 0 mm
00:59 10.8 °C 6.2 °C 1027 hPa South 13.7 km/h 22.2 km/h 73 % 0 mm
01:04 10.8 °C 6.1 °C 1027 hPa SSE 12.7 km/h 22.2 km/h 73 % 0 mm
01:09 10.7 °C 6 °C 1027 hPa SSE 13.5 km/h 22.2 km/h 73 % 0 mm
01:14 10.6 °C 6.2 °C 1026.6 hPa North 14.6 km/h 18.5 km/h 74 % 0 mm
01:19 10.6 °C 6.1 °C 1026.6 hPa SSE 14.2 km/h 22.2 km/h 74 % 0 mm
01:24 10.5 °C 6.1 °C 1026.3 hPa SSE 15.6 km/h 27.8 km/h 74 % 0 mm
01:29 10.4 °C 6 °C 1026.6 hPa South 11.3 km/h 20.4 km/h 74 % 0 mm
01:34 10.4 °C 5.9 °C 1026.6 hPa South 14.5 km/h 25.9 km/h 74 % 0 mm
01:39 10.3 °C 5.8 °C 1026.6 hPa South 10.8 km/h 20.4 km/h 74 % 0 mm
01:44 10.2 °C 5.8 °C 1026.6 hPa South 15.9 km/h 22.2 km/h 74 % 0 mm
01:49 10.2 °C 5.8 °C 1026.3 hPa South 16.6 km/h 20.4 km/h 74 % 0 mm
01:54 10.2 °C 5.7 °C 1026.3 hPa South 12.9 km/h 20.4 km/h 74 % 0 mm
01:59 10.1 °C 5.7 °C 1026.3 hPa South 10.6 km/h 18.5 km/h 74 % 0 mm
02:04 10.1 °C 5.7 °C 1026.3 hPa South 13.5 km/h 22.2 km/h 74 % 0 mm
02:09 10.1 °C 5.8 °C 1026.3 hPa North 16.9 km/h 25.9 km/h 75 % 0 mm
02:14 10 °C 5.8 °C 1026.3 hPa SSE 12.1 km/h 25.9 km/h 75 % 0 mm
02:19 9.9 °C 5.7 °C 1026.3 hPa South 14.2 km/h 20.4 km/h 75 % 0 mm
02:24 9.9 °C 5.7 °C 1026.3 hPa North 15.6 km/h 18.5 km/h 75 % 0 mm
02:29 9.9 °C 5.7 °C 1026.3 hPa South 11.7 km/h 18.5 km/h 75 % 0 mm
02:34 9.8 °C 5.6 °C 1026 hPa North 16.1 km/h 20.4 km/h 75 % 0 mm
02:39 9.8 °C 5.6 °C 1026.3 hPa North 11.6 km/h 17.7 km/h 75 % 0 mm
02:44 9.7 °C 5.7 °C 1026 hPa South 12.1 km/h 20.4 km/h 76 % 0 mm
02:49 9.7 °C 5.7 °C 1026 hPa South 12.6 km/h 22.5 km/h 76 % 0 mm
02:54 9.7 °C 5.6 °C 1026 hPa South 11.9 km/h 24.1 km/h 76 % 0 mm
02:59 9.7 °C 5.6 °C 1026 hPa North 16.1 km/h 24.1 km/h 76 % 0 mm
03:04 9.7 °C 5.9 °C 1026 hPa SSE 13.7 km/h 20.4 km/h 77 % 0 mm
03:09 9.8 °C 5.9 °C 1025.6 hPa South 16.9 km/h 27.4 km/h 77 % 0 mm
03:14 9.8 °C 5.9 °C 1025.6 hPa South 10.3 km/h 24.1 km/h 77 % 0 mm
03:19 9.8 °C 5.9 °C 1025.6 hPa South 12.6 km/h 20.4 km/h 77 % 0 mm
03:24 9.8 °C 5.9 °C 1025.6 hPa South 10.3 km/h 14.8 km/h 77 % 0 mm
03:29 9.8 °C 5.9 °C 1025.6 hPa South 8.9 km/h 16.7 km/h 77 % 0 mm
03:34 9.7 °C 5.9 °C 1025.6 hPa SSE 9.3 km/h 13 km/h 77 % 0 mm
03:39 9.7 °C 6.1 °C 1025.3 hPa South 7.6 km/h 20.4 km/h 78 % 0 mm
03:44 9.8 °C 6.2 °C 1025.3 hPa North 14 km/h 22.2 km/h 78 % 0 mm
03:49 9.9 °C 6.3 °C 1025.3 hPa SSE 10.5 km/h 20.4 km/h 78 % 0 mm
03:54 10 °C 6.3 °C 1025.3 hPa SSE 12.4 km/h 18.5 km/h 78 % 0 mm
03:59 10.1 °C 6.3 °C 1025.3 hPa SSE 12.1 km/h 18.5 km/h 77 % 0 mm
04:04 10.2 °C 6.2 °C 1025.3 hPa SSE 11.6 km/h 14.8 km/h 76 % 0 mm
04:09 10.3 °C 6.2 °C 1025.3 hPa North 13.2 km/h 20.4 km/h 76 % 0 mm
04:14 10.4 °C 6.2 °C 1025.3 hPa South 12.9 km/h 20.4 km/h 75 % 0 mm
04:19 10.4 °C 6.2 °C 1025.3 hPa South 4.3 km/h 11.1 km/h 75 % 0 mm
04:24 10.4 °C 6.2 °C 1025.3 hPa South 11.7 km/h 18.5 km/h 75 % 0 mm
04:29 10.4 °C 6.2 °C 1025.3 hPa South 10.6 km/h 18.5 km/h 75 % 0 mm
04:34 10.3 °C 6.1 °C 1025.3 hPa North 12.2 km/h 14.8 km/h 75 % 0 mm
04:39 10.3 °C 6.1 °C 1025.3 hPa South 14.3 km/h 14.8 km/h 75 % 0 mm
04:44 10.4 °C 6.2 °C 1025.3 hPa SSE 14.6 km/h 18.5 km/h 75 % 0 mm
04:49 10.3 °C 6.1 °C 1025.3 hPa North 11.1 km/h 14.8 km/h 75 % 0 mm
04:54 10.3 °C 6.3 °C 1025.3 hPa South 10.1 km/h 14.8 km/h 76 % 0 mm
04:59 10.3 °C 6.2 °C 1024.9 hPa North 7.4 km/h 11.1 km/h 76 % 0 mm
05:04 10.3 °C 6.2 °C 1024.9 hPa North 7.7 km/h 14.5 km/h 76 % 0 mm
05:09 10.3 °C 6.2 °C 1024.9 hPa North 11.6 km/h 20.4 km/h 76 % 0 mm
05:14 10.2 °C 6.2 °C 1024.9 hPa North 12.2 km/h 18.5 km/h 76 % 0 mm
05:19 10.2 °C 6.1 °C 1024.9 hPa South 9 km/h 14.8 km/h 76 % 0 mm
05:24 10.1 °C 6.1 °C 1024.9 hPa South 9.3 km/h 14.8 km/h 76 % 0 mm
05:29 10.1 °C 6.3 °C 1025.3 hPa South 10 km/h 13 km/h 77 % 0 mm
05:34 10 °C 6.2 °C 1024.9 hPa South 6.4 km/h 11.1 km/h 77 % 0 mm
05:39 9.9 °C 6.1 °C 1024.9 hPa South 8.2 km/h 11.1 km/h 77 % 0 mm
05:44 9.9 °C 6.1 °C 1025.3 hPa North 8.9 km/h 14.8 km/h 77 % 0 mm
05:49 9.9 °C 6.1 °C 1025.3 hPa South 8.9 km/h 11.1 km/h 77 % 0 mm
05:54 9.8 °C 6 °C 1025.3 hPa South 4.7 km/h 11.3 km/h 77 % 0 mm
05:59 9.8 °C 6.1 °C 1025.3 hPa South 9.7 km/h 16.1 km/h 78 % 0 mm
06:04 9.8 °C 6.2 °C 1025.3 hPa North 6.9 km/h 14.8 km/h 78 % 0 mm
06:09 9.8 °C 6.1 °C 1025.3 hPa North 8.9 km/h 13 km/h 78 % 0 mm
06:14 9.8 °C 6.1 °C 1025.3 hPa North 10.6 km/h 18.5 km/h 78 % 0 mm
06:19 9.8 °C 6.1 °C 1025.3 hPa South 9.5 km/h 13 km/h 78 % 0 mm
06:24 9.8 °C 6.2 °C 1025.3 hPa South 3.9 km/h 9.3 km/h 78 % 0 mm
06:29 9.8 °C 6.1 °C 1025.3 hPa South 7.9 km/h 11.1 km/h 78 % 0 mm
06:34 9.8 °C 6.1 °C 1025.3 hPa South 7.9 km/h 14.8 km/h 78 % 0 mm
06:39 9.8 °C 6.1 °C 1025.3 hPa North 10.5 km/h 10.5 km/h 78 % 0 mm
06:44 9.8 °C 6.3 °C 1025.3 hPa SSE 10.3 km/h 16.7 km/h 79 % 0 mm
06:49 9.9 °C 6.4 °C 1025.3 hPa SE 12.4 km/h 20.4 km/h 79 % 0 mm
06:54 10.1 °C 6.6 °C 1025.3 hPa SSE 7.7 km/h 13 km/h 79 % 0 mm
06:59 10 °C 6.3 °C 1025.3 hPa SSE 7.2 km/h 11.1 km/h 78 % 0 mm
07:04 10 °C 6.5 °C 1025.3 hPa SSE 10.9 km/h 16.7 km/h 79 % 0 mm
07:09 10.1 °C 6.6 °C 1025.3 hPa North 12.6 km/h 16.7 km/h 79 % 0 mm
07:14 10.1 °C 6.6 °C 1025.3 hPa SSE 9.2 km/h 18.5 km/h 79 % 0 mm
07:19 10.1 °C 6.6 °C 1025.3 hPa SSE 7.9 km/h 14.8 km/h 79 % 0 mm
07:25 10.2 °C 6.7 °C 1025.3 hPa SSE 8.9 km/h 16.7 km/h 79 % 0 mm
07:30 10.2 °C 6.7 °C 1025.6 hPa SSE 8.9 km/h 13 km/h 79 % 0 mm
07:35 10.3 °C 6.8 °C 1025.6 hPa SSE 6.6 km/h 16.1 km/h 79 % 0 mm
07:40 10.3 °C 6.8 °C 1025.6 hPa SSE 7.9 km/h 14.8 km/h 79 % 0 mm
07:45 10.3 °C 7 °C 1025.6 hPa North 12.2 km/h 18.5 km/h 80 % 0 mm
07:50 10.3 °C 6.8 °C 1025.6 hPa North 6.3 km/h 9.3 km/h 79 % 0 mm
07:55 10.3 °C 6.8 °C 1025.6 hPa North 5.1 km/h 9.7 km/h 79 % 0 mm
08:00 10.3 °C 7.1 °C 1026 hPa South 10.3 km/h 11.1 km/h 80 % 0 mm
08:05 10.4 °C 7.2 °C 1026 hPa South 11.3 km/h 16.7 km/h 80 % 0 mm
08:10 10.6 °C 7.3 °C 1026 hPa South 6.9 km/h 11.1 km/h 80 % 0 mm
08:15 10.8 °C 7.3 °C 1026 hPa South 8.4 km/h 14.8 km/h 79 % 0 mm
08:20 10.9 °C 7.6 °C 1026 hPa SSE 8.4 km/h 16.7 km/h 80 % 0 mm
08:25 11.2 °C 7.9 °C 1026 hPa South 12.1 km/h 18.5 km/h 80 % 0 mm
08:30 11.6 °C 8.1 °C 1026.3 hPa SSE 9.5 km/h 18.5 km/h 79 % 0 mm
08:35 11.9 °C 8.2 °C 1026.3 hPa North 11.4 km/h 18.5 km/h 78 % 0 mm
08:40 12.2 °C 8.3 °C 1026.3 hPa North 13 km/h 18.5 km/h 77 % 0 mm
08:45 12.4 °C 8.3 °C 1026.3 hPa SSE 17.2 km/h 18.5 km/h 76 % 0 mm
08:50 12.8 °C 8.4 °C 1026.3 hPa SSE 10.1 km/h 16.1 km/h 75 % 0 mm
08:55 13 °C 8.4 °C 1026.3 hPa SSE 9.2 km/h 14.8 km/h 74 % 0 mm
09:00 13.2 °C 8.4 °C 1026.3 hPa SSE 12.1 km/h 18.5 km/h 73 % 0 mm
09:05 13.3 °C 8.6 °C 1026.6 hPa SSE 14.2 km/h 18.5 km/h 73 % 0 mm
09:10 13.3 °C 8.4 °C 1026.6 hPa SSE 14.2 km/h 27.8 km/h 72 % 0 mm
09:15 13.4 °C 8.5 °C 1026.6 hPa SSE 15.9 km/h 24.1 km/h 72 % 0 mm
09:20 13.6 °C 8.4 °C 1026.6 hPa SSE 14.3 km/h 18.5 km/h 71 % 0 mm
09:25 13.9 °C 8.8 °C 1026.6 hPa SE 12.1 km/h 18.5 km/h 71 % 0 mm
09:30 14.2 °C 8.6 °C 1026.6 hPa SE 14.2 km/h 20.4 km/h 69 % 0 mm
09:35 14.4 °C 8.8 °C 1026.6 hPa SE 12.1 km/h 18.5 km/h 69 % 0 mm
09:40 14.7 °C 8.6 °C 1026.6 hPa SE 14.3 km/h 22.2 km/h 67 % 0 mm
09:45 14.8 °C 8.8 °C 1026.6 hPa SE 12.6 km/h 16.7 km/h 67 % 0 mm
09:50 15.1 °C 8.8 °C 1026.6 hPa SE 12.6 km/h 20.4 km/h 66 % 0 mm
09:55 15.5 °C 9.2 °C 1026.6 hPa SE 17.2 km/h 22.2 km/h 66 % 0 mm
10:00 15.6 °C 8.8 °C 1026.6 hPa ESE 13.4 km/h 24.1 km/h 64 % 0 mm
10:05 15.8 °C 8.7 °C 1026.6 hPa SE 15.4 km/h 22.2 km/h 63 % 0 mm
10:10 15.8 °C 8.8 °C 1026.6 hPa SE 19.2 km/h 31.5 km/h 63 % 0 mm
10:15 15.9 °C 8.9 °C 1026.6 hPa SSE 12.7 km/h 14.8 km/h 63 % 0 mm
10:20 16 °C 8.9 °C 1026.6 hPa SE 17.9 km/h 22.2 km/h 63 % 0 mm
10:25 16.4 °C 9.1 °C 1026.6 hPa SE 15.6 km/h 20.9 km/h 62 % 0 mm
10:30 16.7 °C 8.9 °C 1026.6 hPa SSE 19.2 km/h 27.8 km/h 60 % 0 mm
10:35 16.9 °C 9.1 °C 1026.6 hPa SE 17.2 km/h 22.5 km/h 60 % 0 mm
10:40 17.1 °C 9 °C 1026.6 hPa SE 14 km/h 20.4 km/h 59 % 0 mm
10:45 17.4 °C 9.1 °C 1026.6 hPa SE 11.3 km/h 16.1 km/h 58 % 0 mm
10:50 17.9 °C 9.3 °C 1026.6 hPa SE 10.8 km/h 18.5 km/h 57 % 0 mm
10:55 18.2 °C 9 °C 1026.6 hPa SE 15.6 km/h 18.5 km/h 55 % 0 mm
11:00 18.6 °C 9.1 °C 1026.6 hPa SE 14 km/h 20.4 km/h 54 % 0 mm
11:05 18.7 °C 9.4 °C 1026.6 hPa East 15.3 km/h 19.3 km/h 55 % 0 mm
11:10 18.4 °C 8.9 °C 1026.6 hPa SE 13.8 km/h 19.3 km/h 54 % 0 mm
11:15 18.5 °C 9.3 °C 1026.6 hPa SE 10 km/h 14.8 km/h 55 % 0 mm
11:20 18.6 °C 9.1 °C 1026.3 hPa SE 10 km/h 16.7 km/h 54 % 0 mm
11:25 18.8 °C 9.1 °C 1026.3 hPa SE 9.7 km/h 20.9 km/h 53 % 0 mm
11:30 18.7 °C 8.9 °C 1026.3 hPa ESE 12.9 km/h 18.5 km/h 53 % 0 mm
11:35 18.8 °C 9.3 °C 1026.3 hPa SSE 12.2 km/h 18.5 km/h 54 % 0 mm
11:40 18.8 °C 9.3 °C 1026.3 hPa SE 9 km/h 13 km/h 54 % 0 mm
11:45 19.3 °C 9.5 °C 1026.3 hPa SE 6.8 km/h 11.3 km/h 53 % 0 mm
11:50 19.5 °C 9.4 °C 1026.3 hPa SE 11.7 km/h 18.5 km/h 52 % 0 mm
11:55 19.9 °C 9.5 °C 1026 hPa SE 10 km/h 20.4 km/h 51 % 0 mm
12:00 20.5 °C 9.4 °C 1026 hPa ESE 10.9 km/h 20.4 km/h 49 % 0 mm
12:05 20.7 °C 9.3 °C 1026 hPa ESE 8.4 km/h 18.5 km/h 48 % 0 mm
12:10 20.7 °C 9.3 °C 1026 hPa ESE 5.5 km/h 13 km/h 48 % 0 mm
12:15 21 °C 9.6 °C 1026 hPa ESE 7.6 km/h 11.3 km/h 48 % 0 mm
12:20 21.2 °C 9.8 °C 1025.6 hPa ESE 6.9 km/h 9.3 km/h 48 % 0 mm
12:25 21.6 °C 9.8 °C 1025.6 hPa ESE 8.7 km/h 13 km/h 47 % 0 mm
12:30 22.2 °C 10 °C 1025.3 hPa East 6 km/h 17.7 km/h 46 % 0 mm
12:35 22.2 °C 9.7 °C 1025.3 hPa East 1.8 km/h 3.7 km/h 45 % 0 mm
12:40 22.1 °C 9.6 °C 1025.3 hPa ENE 6.3 km/h 9.3 km/h 45 % 0 mm
12:45 21.7 °C 9.6 °C 1025.3 hPa ESE 6.9 km/h 13 km/h 46 % 0 mm
12:50 21.3 °C 9.5 °C 1024.9 hPa ESE 5 km/h 11.1 km/h 47 % 0 mm
12:55 21.2 °C 9.4 °C 1024.9 hPa East 8.2 km/h 16.7 km/h 47 % 0 mm
13:00 21.2 °C 9.7 °C 1024.9 hPa ESE 7.1 km/h 11.1 km/h 48 % 0 mm
13:05 21.2 °C 9.8 °C 1024.9 hPa ESE 7.9 km/h 9.3 km/h 48 % 0 mm
13:10 21.2 °C 9.8 °C 1024.6 hPa SE 3.2 km/h 7.4 km/h 48 % 0 mm
13:15 21.6 °C 10.1 °C 1024.6 hPa East 7.2 km/h 16.7 km/h 48 % 0 mm
13:20 22.4 °C 10.2 °C 1024.6 hPa ENE 2.7 km/h 13 km/h 46 % 0 mm
13:25 22.8 °C 10.2 °C 1024.3 hPa ENE 4.3 km/h 11.1 km/h 45 % 0 mm
13:30 23.3 °C 10 °C 1024.3 hPa ENE 5.3 km/h 7.4 km/h 43 % 0 mm
13:35 23 °C 9.7 °C 1024.3 hPa ESE 11.3 km/h 18.5 km/h 43 % 0 mm
13:40 22.8 °C 9.9 °C 1024.3 hPa ESE 5.1 km/h 5.1 km/h 44 % 0 mm
13:45 22.8 °C 9.9 °C 1024.3 hPa ESE 13.4 km/h 14.8 km/h 44 % 0 mm
13:50 22.6 °C 10 °C 1023.9 hPa East 10 km/h 11.3 km/h 45 % 0 mm
13:55 22.8 °C 10.2 °C 1023.9 hPa SE 4.5 km/h 18.5 km/h 45 % 0 mm
14:00 23.2 °C 9.9 °C 1023.9 hPa East 9.7 km/h 13 km/h 43 % 0 mm
14:05 23.3 °C 10 °C 1023.6 hPa SE 10.3 km/h 20.4 km/h 43 % 0 mm
14:10 23.3 °C 10.3 °C 1023.6 hPa SE 7.9 km/h 13 km/h 44 % 0 mm
14:15 23.4 °C 10.1 °C 1023.2 hPa East 6.4 km/h 11.1 km/h 43 % 0 mm
14:20 24.1 °C 10.4 °C 1023.2 hPa SE 10.1 km/h 18.5 km/h 42 % 0 mm
14:25 24.4 °C 9.9 °C 1023.2 hPa East 11.7 km/h 20.4 km/h 40 % 0 mm
14:30 24.2 °C 10.1 °C 1022.9 hPa SE 11.1 km/h 14.8 km/h 41 % 0 mm
14:35 24.3 °C 10.2 °C 1022.9 hPa ESE 10.3 km/h 20.4 km/h 41 % 0 mm
14:40 24.4 °C 10.3 °C 1022.6 hPa SE 11.4 km/h 14.5 km/h 41 % 0 mm
14:45 24.2 °C 10.1 °C 1022.6 hPa SE 6.1 km/h 18.5 km/h 41 % 0 mm
14:50 24.3 °C 10.2 °C 1022.2 hPa SE 15.3 km/h 22.2 km/h 41 % 0 mm
14:55 24.6 °C 10.1 °C 1022.2 hPa ESE 11.7 km/h 20.4 km/h 40 % 0 mm
15:00 24.4 °C 9.9 °C 1022.2 hPa ESE 11.9 km/h 22.2 km/h 40 % 0 mm
15:05 24.7 °C 10.2 °C 1022.2 hPa ESE 10.8 km/h 18.5 km/h 40 % 0 mm
15:10 25.2 °C 9.8 °C 1022.2 hPa SE 22.2 km/h 25.9 km/h 38 % 0 mm
15:15 25 °C 10.1 °C 1022.2 hPa SE 13.7 km/h 22.2 km/h 39 % 0 mm
15:20 25.4 °C 10.4 °C 1021.9 hPa SSE 16.3 km/h 22.5 km/h 39 % 0 mm
15:25 25.5 °C 10.1 °C 1021.9 hPa ESE 12.6 km/h 22.2 km/h 38 % 0 mm
15:30 25.6 °C 10.2 °C 1021.9 hPa ENE 13.4 km/h 24.1 km/h 38 % 0 mm
15:35 25.8 °C 10.4 °C 1021.9 hPa East 11.1 km/h 13 km/h 38 % 0 mm
15:40 25.6 °C 10.2 °C 1021.6 hPa SE 9 km/h 20.4 km/h 38 % 0 mm
15:45 25.7 °C 10.3 °C 1021.6 hPa SE 8.2 km/h 9.3 km/h 38 % 0 mm
15:50 25.9 °C 10.1 °C 1021.6 hPa SE 9.7 km/h 20.4 km/h 37 % 0 mm
15:55 25.6 °C 10.2 °C 1021.6 hPa SE 15.3 km/h 22.2 km/h 38 % 0 mm
16:00 25.1 °C 9.7 °C 1021.6 hPa East 9.5 km/h 20.4 km/h 38 % 0 mm
16:05 24.7 °C 9.8 °C 1021.6 hPa East 13.5 km/h 18.5 km/h 39 % 0 mm
16:10 24.4 °C 9.9 °C 1021.2 hPa ESE 13.8 km/h 18.5 km/h 40 % 0 mm
16:15 24.4 °C 9.9 °C 1021.6 hPa ESE 8.4 km/h 11.1 km/h 40 % 0 mm
16:20 24.3 °C 9.9 °C 1021.2 hPa ESE 12.2 km/h 24.1 km/h 40 % 0 mm
16:25 24.2 °C 9.8 °C 1021.2 hPa SE 9 km/h 11.1 km/h 40 % 0 mm
16:30 24.2 °C 10.1 °C 1021.2 hPa SE 15.8 km/h 18.5 km/h 41 % 0 mm
16:35 24.3 °C 10.2 °C 1021.2 hPa ESE 9.7 km/h 18.5 km/h 41 % 0 mm
16:40 24.7 °C 10.2 °C 1021.2 hPa SE 14 km/h 18.5 km/h 40 % 0 mm
16:45 25.2 °C 9.8 °C 1021.2 hPa SE 19.3 km/h 25.9 km/h 38 % 0 mm
16:50 25.2 °C 10.2 °C 1021.2 hPa SE 14.8 km/h 25.7 km/h 39 % 0 mm
16:55 25.1 °C 10.1 °C 1021.2 hPa SE 16.3 km/h 19.3 km/h 39 % 0 mm
17:00 24.9 °C 10 °C 1021.2 hPa SE 15.6 km/h 20.9 km/h 39 % 0 mm
17:05 24.8 °C 9.9 °C 1021.2 hPa ESE 9.2 km/h 11.1 km/h 39 % 0 mm
17:10 24.9 °C 10.1 °C 1021.2 hPa SE 12.1 km/h 14.8 km/h 39 % 0 mm
17:15 24.9 °C 10 °C 1021.2 hPa ESE 17.2 km/h 27.8 km/h 39 % 0 mm
17:20 24.7 °C 10.2 °C 1021.2 hPa SSE 11.9 km/h 22.5 km/h 40 % 0 mm
17:26 24.7 °C 10.2 °C 1021.2 hPa ESE 18.3 km/h 24.1 km/h 40 % 0 mm
17:31 24.7 °C 10.2 °C 1021.2 hPa ESE 11.4 km/h 18.5 km/h 40 % 0 mm
17:36 24.6 °C 10.1 °C 1021.2 hPa ESE 18.5 km/h 24.1 km/h 40 % 0 mm
17:41 24.4 °C 10.3 °C 1021.2 hPa SE 17.5 km/h 25.9 km/h 41 % 0 mm
17:46 24.2 °C 10.1 °C 1021.2 hPa ESE 16.1 km/h 25.7 km/h 41 % 0 mm
17:51 24.1 °C 10.4 °C 1021.2 hPa ESE 15 km/h 18.5 km/h 42 % 0 mm
17:52 24.1 °C 10.1 °C 1021.2 hPa ESE 17.7 km/h 27.8 km/h 41 % 0 mm
17:57 24.1 °C 10.4 °C 1021.2 hPa ESE 15.6 km/h 20.4 km/h 42 % 0 mm
18:02 23.9 °C 10.2 °C 1021.2 hPa SE 14.6 km/h 22.2 km/h 42 % 0 mm
18:07 23.9 °C 10.2 °C 1020.9 hPa ESE 13 km/h 30.6 km/h 42 % 0 mm
18:12 24.1 °C 10.4 °C 1020.9 hPa ESE 11.9 km/h 14.8 km/h 42 % 0 mm
18:17 23.9 °C 10.2 °C 1021.2 hPa ESE 12.1 km/h 20.4 km/h 42 % 0 mm
18:22 23.7 °C 10 °C 1021.2 hPa ESE 14 km/h 22.2 km/h 42 % 0 mm
18:27 23.3 °C 10.3 °C 1021.2 hPa ESE 16.4 km/h 24.1 km/h 44 % 0 mm
18:32 23.1 °C 10.1 °C 1021.2 hPa SE 19.2 km/h 33.3 km/h 44 % 0 mm
18:37 23.1 °C 10.1 °C 1021.2 hPa ESE 12.7 km/h 31.5 km/h 44 % 0 mm
18:42 23 °C 10.1 °C 1021.2 hPa SE 15 km/h 25.9 km/h 44 % 0 mm
18:47 22.8 °C 9.9 °C 1021.2 hPa ESE 21.6 km/h 35.2 km/h 44 % 0 mm
18:52 22.6 °C 10.1 °C 1021.2 hPa ESE 20.4 km/h 31.5 km/h 45 % 0 mm
18:57 22.4 °C 9.9 °C 1021.2 hPa ESE 13.7 km/h 14.8 km/h 45 % 0 mm
19:02 22 °C 9.8 °C 1021.6 hPa SE 17.4 km/h 29.6 km/h 46 % 0 mm
19:07 21.6 °C 9.8 °C 1021.6 hPa ESE 15.6 km/h 24.1 km/h 47 % 0 mm
19:12 21.2 °C 9.8 °C 1021.6 hPa ESE 16.1 km/h 25.7 km/h 48 % 0 mm
19:17 20.9 °C 9.5 °C 1021.6 hPa SE 19.5 km/h 27.8 km/h 48 % 0 mm
19:22 20.7 °C 9.6 °C 1021.6 hPa SE 14.6 km/h 25.9 km/h 49 % 0 mm
19:27 20.6 °C 9.8 °C 1021.6 hPa SE 9.8 km/h 24.1 km/h 50 % 0 mm
19:32 20.4 °C 9.6 °C 1021.6 hPa SE 18.2 km/h 31.5 km/h 50 % 0 mm
19:37 20.2 °C 9.7 °C 1021.9 hPa SE 17.5 km/h 27.8 km/h 51 % 0 mm
19:42 19.9 °C 9.8 °C 1021.9 hPa SE 17.1 km/h 22.2 km/h 52 % 0 mm
19:47 19.8 °C 9.6 °C 1021.9 hPa SE 12.4 km/h 25.9 km/h 52 % 0 mm
19:52 19.6 °C 9.4 °C 1021.9 hPa North 14 km/h 20.4 km/h 52 % 0 mm
19:57 19.4 °C 9.6 °C 1021.9 hPa SE 11.7 km/h 22.2 km/h 53 % 0 mm
20:02 19.2 °C 9.6 °C 1021.9 hPa SE 16.4 km/h 24.1 km/h 54 % 0 mm
20:07 19.1 °C 9.6 °C 1021.9 hPa ESE 7.7 km/h 13 km/h 54 % 0 mm
20:12 18.9 °C 9.7 °C 1021.9 hPa SE 10.9 km/h 16.7 km/h 55 % 0 mm
20:17 18.7 °C 9.5 °C 1022.2 hPa SE 10 km/h 16.7 km/h 55 % 0 mm
20:22 18.6 °C 9.6 °C 1022.2 hPa SE 7.4 km/h 9.7 km/h 56 % 0 mm
20:27 18.4 °C 9.7 °C 1022.2 hPa SE 13.4 km/h 17.7 km/h 57 % 0 mm
20:32 18.3 °C 9.9 °C 1022.2 hPa ESE 16.3 km/h 18.5 km/h 58 % 0 mm
20:37 18.2 °C 9.8 °C 1022.2 hPa ESE 12.1 km/h 17.7 km/h 58 % 0 mm
20:42 18.1 °C 9.7 °C 1022.2 hPa SE 18.5 km/h 31.5 km/h 58 % 0 mm
20:47 17.9 °C 9.8 °C 1022.2 hPa ESE 13.5 km/h 22.2 km/h 59 % 0 mm
20:52 17.8 °C 9.7 °C 1022.6 hPa ESE 11.7 km/h 25.9 km/h 59 % 0 mm
20:57 17.7 °C 9.6 °C 1022.6 hPa SE 16.6 km/h 22.2 km/h 59 % 0 mm
21:02 17.6 °C 9.7 °C 1022.6 hPa SE 12.1 km/h 19.3 km/h 60 % 0 mm
21:07 17.5 °C 9.7 °C 1022.6 hPa SE 7.2 km/h 18.5 km/h 60 % 0 mm
21:12 17.4 °C 9.6 °C 1022.6 hPa SE 5.3 km/h 13 km/h 60 % 0 mm
21:17 17.3 °C 9.5 °C 1022.6 hPa SE 14.3 km/h 18.5 km/h 60 % 0 mm
21:22 17.2 °C 9.4 °C 1022.6 hPa ESE 11.3 km/h 13 km/h 60 % 0 mm
21:27 17.1 °C 9.5 °C 1022.6 hPa ESE 14 km/h 17.7 km/h 61 % 0 mm
21:32 17 °C 9.4 °C 1022.6 hPa ESE 9 km/h 13 km/h 61 % 0 mm
21:37 16.9 °C 9.6 °C 1022.6 hPa ESE 7.1 km/h 11.1 km/h 62 % 0 mm
21:42 16.8 °C 9.4 °C 1022.6 hPa SE 8 km/h 18.5 km/h 62 % 0 mm
21:47 16.7 °C 9.4 °C 1022.6 hPa SE 9.2 km/h 14.8 km/h 62 % 0 mm
21:52 16.7 °C 9.3 °C 1022.6 hPa ESE 4.2 km/h 14.5 km/h 62 % 0 mm
21:57 16.5 °C 9.4 °C 1022.6 hPa SE 10.6 km/h 11.1 km/h 63 % 0 mm
22:02 16.4 °C 9.3 °C 1022.6 hPa SE 4.8 km/h 14.8 km/h 63 % 0 mm
22:07 16.3 °C 9.2 °C 1022.6 hPa SE 4.7 km/h 13 km/h 63 % 0 mm
22:12 16.2 °C 9.2 °C 1022.6 hPa SE 10.8 km/h 13 km/h 63 % 0 mm
22:17 16.1 °C 9.1 °C 1022.6 hPa SE 7.9 km/h 13 km/h 63 % 0 mm
22:22 16.1 °C 9.2 °C 1022.6 hPa SE 10.1 km/h 14.5 km/h 64 % 0 mm
22:27 16 °C 9.2 °C 1022.6 hPa SE 7.2 km/h 13 km/h 64 % 0 mm
22:32 15.9 °C 9.1 °C 1022.6 hPa SE 6.4 km/h 9.3 km/h 64 % 0 mm
22:37 15.8 °C 9.2 °C 1022.6 hPa SSE 6.9 km/h 14.8 km/h 65 % 0 mm
22:42 15.7 °C 9.2 °C 1022.6 hPa North 6.9 km/h 13 km/h 65 % 0 mm
22:47 15.6 °C 9.1 °C 1022.6 hPa SSE 6.1 km/h 13 km/h 65 % 0 mm
22:52 15.5 °C 9.2 °C 1022.6 hPa SSE 8.2 km/h 9.7 km/h 66 % 0 mm
22:58 15.4 °C 9.1 °C 1022.6 hPa SSE 6.9 km/h 14.5 km/h 66 % 0 mm
23:02 15.3 °C 8.9 °C 1022.6 hPa SSE 7.9 km/h 11.1 km/h 66 % 0 mm
23:08 15.2 °C 9.1 °C 1022.6 hPa SSE 4 km/h 5.6 km/h 67 % 0 mm
23:13 15.1 °C 9 °C 1022.2 hPa SSE 6.4 km/h 11.1 km/h 67 % 0 mm
23:18 15.1 °C 9.2 °C 1022.2 hPa SSE 10.8 km/h 13 km/h 68 % 0 mm
23:23 15 °C 9.1 °C 1022.2 hPa SSE 5 km/h 9.7 km/h 68 % 0 mm
23:28 14.9 °C 9.2 °C 1022.2 hPa SSE 11.3 km/h 11.3 km/h 69 % 0 mm
23:33 14.8 °C 9.2 °C 1022.2 hPa SSE 9.8 km/h 11.1 km/h 69 % 0 mm
23:38 14.7 °C 9.1 °C 1022.2 hPa SSE 6.9 km/h 13 km/h 69 % 0 mm
23:43 14.7 °C 9.3 °C 1022.2 hPa SSE 8 km/h 16.1 km/h 70 % 0 mm
23:48 14.6 °C 9.2 °C 1022.2 hPa South 13.5 km/h 16.7 km/h 70 % 0 mm
23:53 14.6 °C 9.2 °C 1022.2 hPa South 11.4 km/h 14.8 km/h 70 % 0 mm
23:58 14.6 °C 9.3 °C 1022.2 hPa SSE 9 km/h 18.5 km/h 71 % 0 mm
Ararat Weather
Compliments of Weather Underground - 2.25 mb
Click here to send mail.


ABOUT

Live weather data from Ararat, Victoria, Australia, 3377
Data uploaded from Cumulus every 5 minutes to Weather Underground.
This site then downloads the raw data for formatting and display.
Metric and imperial data can be displayed. Graphs and historical data available.
Includes Sun and Moon times and rain image live from BOM.

Check out Ararat Weather on Facebook, Twitter and Google +

Help support ongoing costs by checking out the ads





Follow @AraratWeather